createdAt,value
2023-05-16T00:00:01.724Z,16.12
2023-05-16T00:02:32.036Z,16.15
2023-05-16T00:04:58.888Z,15.99
2023-05-16T00:07:25.531Z,16.01
2023-05-16T00:09:52.270Z,15.77
2023-05-16T00:12:19.834Z,15.85
2023-05-16T00:14:47.966Z,16.02
2023-05-16T00:17:17.545Z,16.00
2023-05-16T00:19:44.785Z,15.98
2023-05-16T00:22:11.690Z,16.00
2023-05-16T00:24:38.818Z,16.08
2023-05-16T00:27:05.721Z,15.97
2023-05-16T00:29:32.530Z,15.75
2023-05-16T00:31:59.426Z,15.80
2023-05-16T00:34:26.468Z,15.73
2023-05-16T00:36:53.692Z,15.57
2023-05-16T00:39:20.887Z,15.64
2023-05-16T00:41:47.685Z,15.68
2023-05-16T00:44:14.853Z,15.94
2023-05-16T00:46:43.055Z,15.62
2023-05-16T00:49:10.461Z,15.59
2023-05-16T00:51:39.254Z,15.47
2023-05-16T00:54:06.708Z,15.63
2023-05-16T00:56:33.948Z,15.65
2023-05-16T00:59:01.461Z,15.71
2023-05-16T01:01:28.589Z,15.46
2023-05-16T01:03:56.107Z,15.51
2023-05-16T01:06:23.012Z,15.28
2023-05-16T01:08:49.771Z,15.33
2023-05-16T01:11:19.891Z,15.28
2023-05-16T01:14:12.168Z,15.32
2023-05-16T01:17:17.705Z,15.30
2023-05-16T01:20:00.451Z,15.37
2023-05-16T01:22:44.661Z,15.22
2023-05-16T01:25:45.706Z,15.22
2023-05-16T01:28:17.498Z,15.12
2023-05-16T01:30:44.862Z,15.45
2023-05-16T01:33:12.376Z,15.44
2023-05-16T01:35:47.452Z,15.43
2023-05-16T01:38:25.916Z,15.34
2023-05-16T01:40:59.620Z,15.32
2023-05-16T01:43:59.105Z,15.24
2023-05-16T01:46:30.988Z,15.32
2023-05-16T01:49:08.770Z,15.05
2023-05-16T01:51:38.753Z,15.19
2023-05-16T01:54:11.038Z,15.12
2023-05-16T01:56:38.825Z,15.22
2023-05-16T01:59:08.176Z,15.14
2023-05-16T02:01:34.972Z,15.21
2023-05-16T02:04:01.803Z,15.00
2023-05-16T02:06:28.601Z,15.05
2023-05-16T02:08:57.071Z,14.70
2023-05-16T02:11:23.777Z,14.72
2023-05-16T02:13:51.776Z,14.77
2023-05-16T02:16:18.760Z,14.94
2023-05-16T02:18:45.884Z,14.90
2023-05-16T02:21:32.446Z,14.94
2023-05-16T02:23:59.053Z,14.68
2023-05-16T02:26:27.413Z,14.75
2023-05-16T02:28:54.477Z,14.63
2023-05-16T02:31:27.909Z,14.64
2023-05-16T02:33:54.731Z,14.43
2023-05-16T02:36:21.613Z,14.67
2023-05-16T02:38:48.453Z,14.50
2023-05-16T02:41:15.225Z,14.49
2023-05-16T02:43:46.775Z,14.57
2023-05-16T02:46:21.740Z,14.65
2023-05-16T02:48:49.231Z,14.58
2023-05-16T02:51:16.059Z,14.62
2023-05-16T02:53:42.752Z,14.32
2023-05-16T02:56:10.278Z,14.45
2023-05-16T02:58:37.014Z,14.26
2023-05-16T03:01:03.690Z,14.06
2023-05-16T03:03:33.356Z,14.22
2023-05-16T03:06:00.574Z,14.35
2023-05-16T03:08:27.302Z,14.17
2023-05-16T03:10:57.104Z,14.16
2023-05-16T03:13:23.897Z,14.22
2023-05-16T03:15:50.767Z,14.35
2023-05-16T03:18:18.020Z,14.33
2023-05-16T03:20:44.799Z,14.42
2023-05-16T03:23:11.527Z,14.31
2023-05-16T03:25:38.683Z,14.06
2023-05-16T03:28:08.017Z,14.08
2023-05-16T03:30:35.440Z,13.75
2023-05-16T03:33:03.798Z,13.79
2023-05-16T03:35:35.083Z,13.89
2023-05-16T03:38:02.601Z,14.00
2023-05-16T03:40:29.563Z,13.81
2023-05-16T03:42:56.306Z,13.90
2023-05-16T03:45:23.267Z,13.83
2023-05-16T03:47:50.386Z,13.77
2023-05-16T03:50:17.426Z,14.00
2023-05-16T03:52:44.090Z,13.91
2023-05-16T03:55:14.141Z,13.94
2023-05-16T03:57:42.216Z,14.04
2023-05-16T04:00:12.601Z,14.02
2023-05-16T04:02:43.919Z,14.08
2023-05-16T04:05:11.787Z,13.83
2023-05-16T04:07:38.462Z,13.91
2023-05-16T04:10:05.534Z,14.03
2023-05-16T04:12:33.403Z,14.10
2023-05-16T04:15:00.083Z,13.76
2023-05-16T04:17:26.855Z,13.94
2023-05-16T04:19:53.530Z,13.91
2023-05-16T04:22:23.275Z,14.00
2023-05-16T04:24:50.210Z,13.88
2023-05-16T04:27:17.526Z,13.91
2023-05-16T04:29:45.461Z,14.02
2023-05-16T04:32:12.462Z,13.81
2023-05-16T04:34:44.323Z,14.00
2023-05-16T04:37:11.616Z,13.95
2023-05-16T04:39:38.360Z,13.96
2023-05-16T04:42:06.360Z,14.06
2023-05-16T04:44:32.958Z,14.05
2023-05-16T04:46:59.676Z,14.04
2023-05-16T04:49:26.554Z,14.10
2023-05-16T04:51:53.253Z,14.04
2023-05-16T04:54:20.058Z,13.88
2023-05-16T04:56:46.781Z,13.88
2023-05-16T04:59:14.190Z,13.87
2023-05-16T05:01:41.184Z,13.93
2023-05-16T05:04:08.082Z,13.82
2023-05-16T05:06:34.845Z,14.00
2023-05-16T05:09:01.487Z,14.00
2023-05-16T05:11:28.520Z,14.18
2023-05-16T05:13:55.191Z,14.05
2023-05-16T05:16:22.085Z,14.12
2023-05-16T05:18:48.964Z,14.24
2023-05-16T05:21:15.827Z,14.21
2023-05-16T05:23:42.517Z,14.07
2023-05-16T05:26:09.502Z,14.25
2023-05-16T05:28:37.735Z,14.18
2023-05-16T05:31:08.195Z,14.21
2023-05-16T05:33:34.984Z,14.32
2023-05-16T05:36:03.884Z,14.24
2023-05-16T05:38:30.876Z,14.50
2023-05-16T05:40:57.652Z,14.65
2023-05-16T05:43:24.376Z,14.55
2023-05-16T05:45:51.228Z,14.54
2023-05-16T05:48:18.233Z,14.46
2023-05-16T05:50:44.955Z,14.42
2023-05-16T05:53:11.801Z,14.36
2023-05-16T05:55:38.516Z,14.54
2023-05-16T05:58:07.038Z,14.34
2023-05-16T06:00:34.077Z,14.37
2023-05-16T06:03:01.357Z,14.39
2023-05-16T06:05:28.387Z,14.39
2023-05-16T06:07:55.452Z,14.59
2023-05-16T06:10:23.236Z,14.55
2023-05-16T06:12:50.084Z,14.26
2023-05-16T06:15:16.991Z,14.38
2023-05-16T06:17:43.739Z,14.47
2023-05-16T06:20:11.234Z,14.50
2023-05-16T06:22:37.952Z,14.66
2023-05-16T06:25:04.824Z,14.64
2023-05-16T06:27:33.625Z,14.73
2023-05-16T06:30:00.523Z,14.89
2023-05-16T06:32:27.229Z,15.03
2023-05-16T06:34:54.012Z,14.92
2023-05-16T06:37:20.761Z,15.03
2023-05-16T06:39:47.432Z,15.21
2023-05-16T06:42:14.226Z,15.23
2023-05-16T06:44:41.181Z,15.32
2023-05-16T06:47:07.921Z,15.27
2023-05-16T06:49:34.910Z,15.18
2023-05-16T06:52:02.638Z,15.24
2023-05-16T06:54:29.568Z,15.25
2023-05-16T06:56:56.327Z,15.23
2023-05-16T06:59:23.492Z,15.29
2023-05-16T07:01:50.252Z,15.12
2023-05-16T07:04:17.064Z,15.42
2023-05-16T07:06:43.855Z,15.41
2023-05-16T07:09:10.675Z,15.51
2023-05-16T07:11:37.377Z,15.77
2023-05-16T07:14:04.136Z,15.65
2023-05-16T07:16:31.039Z,15.54
2023-05-16T07:18:57.774Z,15.58
2023-05-16T07:21:24.575Z,15.54
2023-05-16T07:23:51.354Z,15.61
2023-05-16T07:26:18.567Z,15.53
2023-05-16T07:28:45.394Z,15.23
2023-05-16T07:31:12.201Z,15.21
2023-05-16T07:33:38.937Z,15.02
2023-05-16T07:36:16.006Z,15.05
2023-05-16T07:38:44.732Z,15.05
2023-05-16T07:41:11.624Z,15.10
2023-05-16T07:43:38.511Z,15.08
2023-05-16T07:46:05.885Z,15.01
2023-05-16T07:48:32.907Z,15.07
2023-05-16T07:50:59.788Z,15.03
2023-05-16T07:53:26.675Z,14.98
2023-05-16T07:55:53.463Z,15.09
2023-05-16T07:58:20.419Z,14.96
2023-05-16T08:00:47.393Z,14.70
2023-05-16T08:03:14.186Z,14.77
2023-05-16T08:05:41.007Z,14.87
2023-05-16T08:08:07.784Z,14.77
2023-05-16T08:10:34.441Z,14.73
2023-05-16T08:13:01.293Z,14.71
2023-05-16T08:15:28.777Z,14.69
2023-05-16T08:17:59.008Z,14.61
2023-05-16T08:20:26.371Z,14.68
2023-05-16T08:22:53.710Z,14.60
2023-05-16T08:25:21.280Z,14.71
2023-05-16T08:27:50.816Z,14.59
2023-05-16T08:30:17.642Z,14.73
2023-05-16T08:32:44.516Z,14.62
2023-05-16T08:35:11.449Z,14.66
2023-05-16T08:37:38.826Z,14.79
2023-05-16T08:40:09.511Z,14.90
2023-05-16T08:42:37.505Z,14.84
2023-05-16T08:45:05.786Z,14.77
2023-05-16T08:47:34.104Z,14.93
2023-05-16T08:50:07.013Z,14.94
2023-05-16T08:52:36.712Z,15.02
2023-05-16T08:55:11.974Z,15.10
2023-05-16T08:57:40.670Z,15.06
2023-05-16T09:00:12.217Z,15.30
2023-05-16T09:02:44.296Z,15.51
2023-05-16T09:05:13.895Z,15.47
2023-05-16T09:07:42.069Z,15.31
2023-05-16T09:10:09.860Z,15.34
2023-05-16T09:12:36.833Z,15.35
2023-05-16T09:15:05.197Z,15.31
2023-05-16T09:17:41.339Z,15.39
2023-05-16T09:20:12.924Z,15.27
2023-05-16T09:22:40.917Z,15.28
2023-05-16T09:25:12.716Z,15.22
2023-05-16T09:27:51.005Z,15.15
2023-05-16T09:30:21.930Z,15.19
2023-05-16T09:32:51.604Z,15.21
2023-05-16T09:35:35.185Z,15.02
2023-05-16T09:38:14.544Z,14.74
2023-05-16T09:40:44.307Z,14.85
2023-05-16T09:43:16.225Z,14.76
2023-05-16T09:45:47.733Z,14.76
2023-05-16T09:48:15.936Z,14.88
2023-05-16T09:50:54.277Z,14.70
2023-05-16T09:53:27.544Z,14.88
2023-05-16T09:56:07.726Z,15.02
2023-05-16T09:58:36.116Z,14.78
2023-05-16T10:01:03.653Z,14.93
2023-05-16T10:03:30.723Z,14.91
2023-05-16T10:05:57.596Z,14.97
2023-05-16T10:08:26.422Z,14.85
2023-05-16T10:10:55.147Z,14.78
2023-05-16T10:13:23.772Z,14.69
2023-05-16T10:15:52.750Z,14.57
2023-05-16T10:18:22.098Z,14.55
2023-05-16T10:20:52.312Z,14.68
2023-05-16T10:23:21.147Z,14.72
2023-05-16T10:25:49.334Z,14.81
2023-05-16T10:28:16.752Z,14.71
2023-05-16T10:30:46.107Z,14.72
2023-05-16T10:33:15.110Z,14.65
2023-05-16T10:35:43.731Z,14.58
2023-05-16T10:38:12.638Z,14.45
2023-05-16T10:40:40.818Z,14.58
2023-05-16T10:43:08.822Z,14.38
2023-05-16T10:45:41.888Z,14.67
2023-05-16T10:48:12.357Z,14.72
2023-05-16T10:50:41.350Z,14.76
2023-05-16T10:53:37.369Z,14.82
2023-05-16T10:56:04.082Z,14.76
2023-05-16T10:58:38.454Z,14.80
2023-05-16T11:01:24.759Z,14.72
2023-05-16T11:03:57.888Z,14.84
2023-05-16T11:06:29.323Z,14.80
2023-05-16T11:09:11.155Z,14.74
2023-05-16T11:11:46.337Z,14.49
2023-05-16T11:14:34.915Z,14.46
2023-05-16T11:17:15.115Z,14.42
2023-05-16T11:19:45.466Z,14.58
2023-05-16T11:22:22.325Z,14.48
2023-05-16T11:25:16.035Z,14.49
2023-05-16T11:27:49.031Z,14.30
2023-05-16T11:30:18.060Z,14.36
2023-05-16T11:32:46.712Z,14.37
2023-05-16T11:35:18.167Z,14.19
2023-05-16T11:37:46.955Z,14.24
2023-05-16T11:40:14.842Z,14.27
2023-05-16T11:42:46.489Z,14.24
2023-05-16T11:45:18.630Z,14.30
2023-05-16T11:47:47.989Z,13.85
2023-05-16T11:50:25.189Z,14.11
2023-05-16T11:52:56.961Z,13.99
2023-05-16T11:55:41.294Z,14.12
2023-05-16T11:58:10.246Z,14.01
2023-05-16T12:00:37.104Z,14.17
2023-05-16T12:03:05.483Z,14.18
2023-05-16T12:05:34.295Z,14.15
2023-05-16T12:08:02.757Z,14.21
2023-05-16T12:10:31.866Z,14.11
2023-05-16T12:12:59.072Z,14.08
2023-05-16T12:15:26.308Z,14.08
2023-05-16T12:17:53.427Z,14.15
2023-05-16T12:20:20.306Z,14.04
2023-05-16T12:22:47.075Z,14.30
2023-05-16T12:25:27.091Z,14.37
2023-05-16T12:27:55.589Z,14.82
2023-05-16T12:30:24.828Z,14.93
2023-05-16T12:33:05.786Z,14.93
2023-05-16T12:35:35.149Z,15.26
2023-05-16T12:38:10.258Z,15.47
2023-05-16T12:40:39.393Z,15.69
2023-05-16T12:43:23.331Z,15.87
2023-05-16T12:45:52.893Z,15.95
2023-05-16T12:48:20.022Z,15.63
2023-05-16T12:50:47.022Z,15.74
2023-05-16T12:53:15.003Z,15.61
2023-05-16T12:55:42.572Z,15.57
2023-05-16T12:58:11.132Z,15.83
2023-05-16T13:00:38.943Z,15.46
2023-05-16T13:03:08.808Z,15.47
2023-05-16T13:05:36.226Z,15.63
2023-05-16T13:08:03.827Z,15.56
2023-05-16T13:10:30.956Z,15.68
2023-05-16T13:12:59.886Z,15.81
2023-05-16T13:15:27.731Z,15.97
2023-05-16T13:17:55.025Z,16.09
2023-05-16T13:20:21.799Z,16.23
2023-05-16T13:22:48.825Z,16.27
2023-05-16T13:25:16.071Z,16.29
2023-05-16T13:27:42.861Z,16.33
2023-05-16T13:30:10.066Z,16.41
2023-05-16T13:32:38.244Z,16.38
2023-05-16T13:35:06.181Z,16.30
2023-05-16T13:37:33.002Z,16.40
2023-05-16T13:40:00.204Z,16.28
2023-05-16T13:42:27.384Z,16.30
2023-05-16T13:44:54.117Z,16.49
2023-05-16T13:47:20.873Z,16.55
2023-05-16T13:49:48.778Z,16.65
2023-05-16T13:52:15.541Z,16.90
2023-05-16T13:54:42.392Z,17.00
2023-05-16T13:57:09.141Z,17.10
2023-05-16T14:02:05.803Z,17.23
2023-05-16T14:04:32.697Z,17.32
2023-05-16T14:06:59.493Z,17.51
2023-05-16T14:09:26.198Z,17.50
2023-05-16T14:11:53.964Z,17.66
2023-05-16T14:14:21.223Z,17.53
2023-05-16T14:16:47.956Z,17.40
2023-05-16T14:19:17.268Z,17.51
2023-05-16T14:21:45.789Z,17.77
2023-05-16T14:24:12.628Z,17.97
2023-05-16T14:26:39.490Z,17.84
2023-05-16T14:29:06.268Z,18.20
2023-05-16T14:31:33.405Z,18.27
2023-05-16T14:34:00.237Z,18.45
2023-05-16T14:36:26.941Z,18.67
2023-05-16T14:38:53.689Z,18.98
2023-05-16T14:41:21.241Z,18.59
2023-05-16T14:43:47.978Z,18.16
2023-05-16T14:46:14.870Z,18.48
2023-05-16T14:48:41.584Z,18.70
2023-05-16T14:51:08.442Z,19.37
2023-05-16T14:53:35.412Z,20.52
2023-05-16T14:56:03.728Z,22.17
2023-05-16T14:58:30.869Z,23.73
2023-05-16T15:00:57.944Z,24.33
2023-05-16T15:03:24.958Z,24.04
2023-05-16T15:05:52.702Z,23.08
2023-05-16T15:08:19.407Z,24.68
2023-05-16T15:10:46.599Z,23.85
2023-05-16T15:13:13.350Z,22.80
2023-05-16T15:15:40.096Z,22.67
2023-05-16T15:18:06.864Z,24.67
2023-05-16T15:20:33.576Z,26.20
2023-05-16T15:23:00.579Z,27.40
2023-05-16T15:25:28.071Z,26.58
2023-05-16T15:27:55.232Z,26.88
2023-05-16T15:30:22.392Z,27.79
2023-05-16T15:32:49.371Z,28.36
2023-05-16T15:35:16.282Z,28.14
2023-05-16T15:37:43.852Z,26.70
2023-05-16T15:40:11.532Z,24.73
2023-05-16T15:42:38.373Z,23.06
2023-05-16T15:45:05.963Z,21.89
2023-05-16T15:47:32.980Z,21.25
2023-05-16T15:49:59.758Z,21.07
2023-05-16T15:52:26.600Z,20.71
2023-05-16T15:54:53.387Z,20.48
2023-05-16T15:57:20.056Z,20.25
2023-05-16T15:59:46.950Z,20.01
2023-05-16T16:02:13.787Z,19.80
2023-05-16T16:04:40.684Z,19.63
2023-05-16T16:07:07.390Z,19.37
2023-05-16T16:09:34.129Z,19.45
2023-05-16T16:12:01.054Z,19.44
2023-05-16T16:14:27.877Z,19.42
2023-05-16T16:16:54.701Z,19.35
2023-05-16T16:19:21.689Z,19.19
2023-05-16T16:21:48.451Z,19.15
2023-05-16T16:24:15.260Z,19.05
2023-05-16T16:26:42.437Z,18.79
2023-05-16T16:29:09.386Z,18.87
2023-05-16T16:31:36.268Z,18.98
2023-05-16T16:34:03.245Z,18.77
2023-05-16T16:36:31.276Z,18.64
2023-05-16T16:38:59.868Z,18.52
2023-05-16T16:41:26.595Z,18.36
2023-05-16T16:43:53.278Z,18.23
2023-05-16T16:46:20.232Z,18.15
2023-05-16T16:48:47.810Z,18.12
2023-05-16T16:51:14.555Z,18.11
2023-05-16T16:53:41.730Z,18.04
2023-05-16T16:56:08.464Z,17.94
2023-05-16T16:58:35.296Z,18.04
2023-05-16T17:01:02.280Z,18.10
2023-05-16T17:03:29.159Z,17.86
2023-05-16T17:05:56.063Z,17.99
2023-05-16T17:08:22.877Z,17.98
2023-05-16T17:10:49.582Z,18.07
2023-05-16T17:13:17.567Z,18.23
2023-05-16T17:15:44.474Z,18.14
2023-05-16T17:18:11.279Z,18.03
2023-05-16T17:20:37.991Z,18.18
2023-05-16T17:23:05.159Z,18.25
2023-05-16T17:25:32.392Z,18.10
2023-05-16T17:27:59.303Z,18.00
2023-05-16T17:30:26.233Z,17.67
2023-05-16T17:32:53.882Z,17.58
2023-05-16T17:35:21.061Z,17.63
2023-05-16T17:37:47.907Z,17.23
2023-05-16T17:40:17.110Z,17.35
2023-05-16T17:42:45.349Z,17.35
2023-05-16T17:45:14.846Z,17.24
2023-05-16T17:47:42.162Z,17.26
2023-05-16T17:50:10.410Z,17.33
2023-05-16T17:52:40.526Z,17.20
2023-05-16T17:55:09.079Z,17.10
2023-05-16T17:57:35.999Z,17.16
2023-05-16T18:00:05.408Z,17.14
2023-05-16T18:02:36.029Z,17.13
2023-05-16T18:05:04.845Z,17.20
2023-05-16T18:07:32.270Z,17.15
2023-05-16T18:09:59.037Z,17.05
2023-05-16T18:12:25.728Z,17.02
2023-05-16T18:14:53.198Z,17.01
2023-05-16T18:17:20.166Z,16.96
2023-05-16T18:19:47.040Z,16.99
2023-05-16T18:22:13.914Z,16.86
2023-05-16T18:24:40.878Z,16.72
2023-05-16T18:27:07.656Z,16.87
2023-05-16T18:29:34.449Z,16.72
2023-05-16T18:32:01.487Z,16.67
2023-05-16T18:34:28.422Z,16.77
2023-05-16T18:36:55.082Z,16.86
2023-05-16T18:39:21.985Z,16.80
2023-05-16T18:41:48.898Z,16.80
2023-05-16T18:44:18.480Z,16.89
2023-05-16T18:46:46.250Z,16.76
2023-05-16T18:49:14.160Z,16.80
2023-05-16T18:51:41.248Z,16.63
2023-05-16T18:54:08.119Z,16.51
2023-05-16T18:56:35.350Z,16.55
2023-05-16T18:59:02.254Z,16.56
2023-05-16T19:01:29.080Z,16.45
2023-05-16T19:03:56.103Z,16.63
2023-05-16T19:06:23.199Z,16.47
2023-05-16T19:08:50.084Z,16.46
2023-05-16T19:11:17.853Z,16.46
2023-05-16T19:13:45.646Z,16.38
2023-05-16T19:16:12.551Z,16.40
2023-05-16T19:18:39.545Z,16.38
2023-05-16T19:21:13.203Z,16.21
2023-05-16T19:23:40.671Z,16.31
2023-05-16T19:26:07.528Z,16.37
2023-05-16T19:28:34.727Z,16.28
2023-05-16T19:31:01.624Z,16.32
2023-05-16T19:33:28.484Z,16.23
2023-05-16T19:35:57.665Z,16.21
2023-05-16T19:38:25.665Z,16.14
2023-05-16T19:40:53.225Z,16.19
2023-05-16T19:43:20.141Z,15.88
2023-05-16T19:45:46.937Z,15.85
2023-05-16T19:48:13.908Z,15.72
2023-05-16T19:50:40.700Z,15.79
2023-05-16T19:53:07.387Z,15.75
2023-05-16T19:55:37.722Z,15.61
2023-05-16T19:58:05.116Z,15.56
2023-05-16T20:00:32.268Z,15.59
2023-05-16T20:02:59.771Z,15.59
2023-05-16T20:05:27.028Z,15.45
2023-05-16T20:07:55.214Z,15.64
2023-05-16T20:10:22.249Z,15.61
2023-05-16T20:12:49.313Z,15.47
2023-05-16T20:15:16.163Z,15.35
2023-05-16T20:17:42.996Z,15.19
2023-05-16T20:20:10.291Z,15.19
2023-05-16T20:22:41.301Z,15.20
2023-05-16T20:25:10.259Z,15.04
2023-05-16T20:27:37.794Z,15.00
2023-05-16T20:30:06.446Z,15.11
2023-05-16T20:32:33.772Z,15.01
2023-05-16T20:35:04.030Z,14.99
2023-05-16T20:37:33.452Z,15.02
2023-05-16T20:40:00.322Z,14.92
2023-05-16T20:42:27.079Z,14.99
2023-05-16T20:44:53.990Z,14.86
2023-05-16T20:47:20.825Z,14.77
2023-05-16T20:49:47.614Z,14.69
2023-05-16T20:52:14.360Z,14.70
2023-05-16T20:54:41.816Z,14.64
2023-05-16T20:57:08.804Z,14.76
2023-05-16T20:59:37.332Z,14.69
2023-05-16T21:02:05.760Z,14.82
2023-05-16T21:04:32.582Z,14.89
2023-05-16T21:06:59.315Z,14.82
2023-05-16T21:09:26.120Z,14.73
2023-05-16T21:11:53.458Z,14.61
2023-05-16T21:14:20.215Z,14.64
2023-05-16T21:16:47.012Z,14.62
2023-05-16T21:19:13.878Z,14.63
2023-05-16T21:21:40.816Z,14.58
2023-05-16T21:24:07.570Z,14.65
2023-05-16T21:26:34.352Z,14.59
2023-05-16T21:29:01.302Z,14.30
2023-05-16T21:31:28.140Z,14.49
2023-05-16T21:33:55.117Z,14.43
2023-05-16T21:36:22.193Z,14.58
2023-05-16T21:38:49.133Z,14.55
2023-05-16T21:41:17.980Z,14.42
2023-05-16T21:43:44.850Z,14.15
2023-05-16T21:46:11.720Z,14.27
2023-05-16T21:48:38.577Z,14.16
2023-05-16T21:51:05.579Z,14.06
2023-05-16T21:53:34.024Z,14.11
2023-05-16T21:56:00.988Z,14.24
2023-05-16T21:58:27.832Z,14.12
2023-05-16T22:00:54.608Z,14.04
2023-05-16T22:03:21.727Z,14.18
2023-05-16T22:05:48.705Z,14.01
2023-05-16T22:08:15.735Z,13.83
2023-05-16T22:10:42.816Z,13.98
2023-05-16T22:13:09.635Z,13.81
2023-05-16T22:15:36.359Z,13.80
2023-05-16T22:18:03.172Z,13.63
2023-05-16T22:20:30.038Z,13.47
2023-05-16T22:22:56.811Z,13.36
2023-05-16T22:25:23.618Z,13.39
2023-05-16T22:27:50.499Z,13.47
2023-05-16T22:30:17.223Z,13.41
2023-05-16T22:32:45.692Z,13.50
2023-05-16T22:35:13.734Z,13.36
2023-05-16T22:37:40.465Z,13.25
2023-05-16T22:40:08.199Z,13.04
2023-05-16T22:42:35.073Z,13.11
2023-05-16T22:45:01.846Z,13.13
2023-05-16T22:47:31.849Z,13.10
2023-05-16T22:49:58.608Z,12.89
2023-05-16T22:52:25.443Z,12.99
2023-05-16T22:54:52.153Z,13.02
2023-05-16T22:57:18.902Z,12.86
2023-05-16T22:59:45.650Z,12.88
2023-05-16T23:02:12.643Z,12.86
2023-05-16T23:04:39.467Z,12.91
2023-05-16T23:07:06.224Z,12.85
2023-05-16T23:09:33.007Z,12.81
2023-05-16T23:12:00.241Z,12.92
2023-05-16T23:14:27.307Z,12.84
2023-05-16T23:16:54.118Z,12.82
2023-05-16T23:19:21.107Z,12.83
2023-05-16T23:21:47.975Z,12.80
2023-05-16T23:24:14.680Z,12.73
2023-05-16T23:26:41.388Z,12.68
2023-05-16T23:29:08.123Z,12.59
2023-05-16T23:31:34.951Z,12.60
2023-05-16T23:34:01.848Z,12.70
2023-05-16T23:36:28.832Z,12.67
2023-05-16T23:38:55.735Z,12.60
2023-05-16T23:41:22.590Z,12.69
2023-05-16T23:43:49.350Z,12.61
2023-05-16T23:46:16.199Z,12.78
2023-05-16T23:48:43.114Z,12.59
2023-05-16T23:51:09.889Z,12.58
2023-05-16T23:53:36.710Z,12.55
2023-05-16T23:56:03.578Z,12.46
2023-05-16T23:58:30.537Z,12.44
